环球最后一站,到北京的计划

暂定的起飞时间是北京时间8月2日(周六)下午2点 (20140802 0600Z)。感兴趣的飞友可以一起来热闹热闹。

 

早上附近几个机场的METAR和TAF,看起来河南的能见度更差,北京也是标准边缘。

ZBAA 020000Z 12002MPS 070V170 5000 BR NSC 27/24 Q1005 NOSIG

ZBAA 012120Z 0200/0224 18004MPS 5000 HZ NSC TX33/0207Z TN22/21Z

 

ZHCC 020000Z 33002MPS 270V080 2500 HZ NSC 28/23 Q1005 BECMG 3000

ZHCC 011915Z 0200/0224 09004MPS 2000 HZ NSC TX35/0207Z TN24/0221Z BECMG 0201/0202 3200

 

ZBSJ 020000Z 26002MPS 2000 R33/1400N BR NSC 28/25 Q1005 NOSIG

ZBSJ 011906Z 0200/0224 09004MPS 2000 BR NSC TX35/0206Z TN23/20Z

 

到下午再看看吧,时间就这个吧,既然定了就不改了。如果天气还是不符合VMC标准,两个选择,一呢是申请IFR计划,第二呢,就是不用真实天气。

 

用Cessna 172的环球飞行飞了两年多,终于到了最后一站。感谢大家的关注,有你们的支持才有动力更新blog。

之前Li Shan建议说最后一站想大家一起飞,我觉得是挺好的主意。只是我平时比较忙,大都周末才有时间,另外,我习惯上都选用真实的时间和真实的天气,所以飞行时间的随意度比较大。如果约定一个时间,天气条件不好,我怕飞不了。不知道各位有什么想法。

 

不论如何,我先把最后一站的飞行路线和计划发上来,大家参考。

 

出发机场是河南安阳的北郊机场,我用的是Sino的中国机场包,里面有ZHAY开头的,就是这个机场的地景。如果没有安阳的地景,可以从郑州飞。今天新浪blog挂了,等好了我就更新郑州到安阳的日志。

 

从安阳到北京的飞行航路是参考下面这条线的。

ZHAY DCT WXI A461 VYK DCT ZBAA

 

百度地图

post-30-0-60514200-1406380525.jpg

post-30-0-70799600-1406380569_thumb.jpg

post-30-0-40782900-1406380615_thumb.jpg

 

飞行计划:(需要在飞行前修正一下风偏)

post-30-0-68272100-1406381810_thumb.jpg

 

ZBAA的航图可以访问咱们的eAIP:

http://www.eaipchina.cn/

 

草草做了一些FSX中河南河北的河流、湖泊、道路的向量地景更新。有兴趣的飞友可以下载。

http://pan.baidu.com/s/1pJjsqMn

 

安装的时候,把ChinaVFR_Exclude_v0.x.zip , ChinaVFR_省份_v0.x.zip(如ChinaVFR_HeNan_v0.1.zip , ChinaVFR_HeBei_v0.1.zip)解压缩到FSX的Addon Scenery目录,添加地景的时候,将ChinaVFR_Exclude_v0.x放到各省份的地景(如ChinaVFR_HeBei_v0.1和ChinaVFR_HeNan_v0.1)下面,省份的顺序无所谓。

比Orbx的Vector要详细地多,小型的道路和河流更明显,向量密度可以看这个图。

post-30-0-06509500-1406381216.jpg

漂亮!希望与您同行

效果图有吗 https://forum.vatprc.net/uploads/emoticons/default_wub.png" alt=":wub:" /> ?

耐思!!楼主能把做向量地景的方法说一下吗?我也尝试做一下家乡的vector

稍微有点复杂。我是基于网上找到的一个非加密版本的Garmin GPS数据转换得来的,好像是套2008年的数据,中国全国都有。我飞完环球会开始弄这个事情,要慢慢把国内的更新补齐。

如果从头做,工作量就大了。你可以先在Google Earth里面做标注,用线段标注道路,按照车道数把这些道路分类。对于河流和湖泊,用多边形把轮廓勾勒出来,这个部分的工作量很大。标注好存成kml的文件。做地景时,用一个叫做fsxkml的工具做转换就可以了。工具在FSDeveloper网站可以下载到。其间有些文本格式需要处理,会用到比较多的正则表达式转换,我一般用UltraEdit去做,说起来事情太多了。

很好,有时间一定跟一个,请确定时间后,提前通告一下下

暂时定在北京时间下周六下午2点吧 (20140802 0600Z),不知道到时天气如何,如果不好的话可能会推迟。我随时更新这个帖子。

 

另外,今天把我之前做的北京VFR的地景重新整理了一下,略微修改了一些,也对安装步骤做了些更新,总的来说安装还是比较复杂,但新的步骤可以减少对于其他插件的影响,对于FSX文件操作比较熟悉的朋友可以尝试。

 

下载地址和安装步骤看这里。

http://blog.sina.com.cn/s/blog_4723b44e010115rf.html

的确很不错

最后一站来个管制~

那我来个APP吧 https://forum.vatprc.net/uploads/emoticons/default_rolleyes.gif" alt=“:rolleyes:”>

 

支持一个! 希望能吸引到更多经常在国内飞的飞友们,回到国内连飞,并且吸引更多飞友加入VFR飞行的行列!

呃,刚接到通知,周六家里有事必须外出,我争取下午早点赶回来参加活动,晚了的话,我就半路加入吧 https://forum.vatprc.net/uploads/emoticons/default_tongue.png" alt=":P" />

更新了一下天气情况,今天天气不太好啊

我已经到了,看到你了,怎么下线了?

已经落地了吗,我刚刚看还在安阳啊?

是啊,2点多出发的,已经到了,中间断了两次线。 https://forum.vatprc.net/uploads/emoticons/default_biggrin.png" alt=“:D” />

呵呵,再一起飞别的地方呗。你们啥时候再飞北美?我有空也去欢乐一下。